sensor_id;sensor_type;location;lat;lon;timestamp;pressure;altitude;pressure_sealevel;temperature;humidity
71764;BME280;59602;52.142;5.408;2023-03-13T00:00:57;100319.19;;;8.59;97.48
71764;BME280;59602;52.142;5.408;2023-03-13T00:03:26;100312.22;;;8.58;97.63
71764;BME280;59602;52.142;5.408;2023-03-13T00:05:56;100298.69;;;8.58;97.82
71764;BME280;59602;52.142;5.408;2023-03-13T00:08:24;100293.25;;;8.58;97.57
71764;BME280;59602;52.142;5.408;2023-03-13T00:10:53;100284.38;;;8.58;98.15
71764;BME280;59602;52.142;5.408;2023-03-13T00:13:20;100270.81;;;8.58;98.09
71764;BME280;59602;52.142;5.408;2023-03-13T00:15:47;100274.69;;;8.60;98.11
71764;BME280;59602;52.142;5.408;2023-03-13T00:18:13;100270.03;;;8.61;97.94
71764;BME280;59602;52.142;5.408;2023-03-13T00:20:40;100270.03;;;8.61;98.18
71764;BME280;59602;52.142;5.408;2023-03-13T00:23:10;100264.25;;;8.62;98.31
71764;BME280;59602;52.142;5.408;2023-03-13T00:25:37;100254.19;;;8.63;98.10
71764;BME280;59602;52.142;5.408;2023-03-13T00:28:07;100247.59;;;8.64;98.29
71764;BME280;59602;52.142;5.408;2023-03-13T00:30:35;100253.00;;;8.64;98.24
71764;BME280;59602;52.142;5.408;2023-03-13T00:33:02;100242.56;;;8.62;98.23
71764;BME280;59602;52.142;5.408;2023-03-13T00:35:29;100235.97;;;8.63;98.14
71764;BME280;59602;52.142;5.408;2023-03-13T00:37:56;100219.72;;;8.63;98.61
71764;BME280;59602;52.142;5.408;2023-03-13T00:40:23;100215.47;;;8.62;98.81
71764;BME280;59602;52.142;5.408;2023-03-13T00:42:50;100201.16;;;8.62;98.83
71764;BME280;59602;52.142;5.408;2023-03-13T00:45:16;100196.50;;;8.62;98.94
71764;BME280;59602;52.142;5.408;2023-03-13T00:47:43;100188.38;;;8.62;99.04
71764;BME280;59602;52.142;5.408;2023-03-13T00:50:10;100182.19;;;8.62;99.16
71764;BME280;59602;52.142;5.408;2023-03-13T00:52:37;100173.66;;;8.60;99.54
71764;BME280;59602;52.142;5.408;2023-03-13T00:55:04;100169.78;;;8.61;99.75
71764;BME280;59602;52.142;5.408;2023-03-13T00:57:32;100165.53;;;8.60;99.87
71764;BME280;59602;52.142;5.408;2023-03-13T01:00:03;100157.00;;;8.61;100.00
71764;BME280;59602;52.142;5.408;2023-03-13T01:02:32;100147.72;;;8.62;100.00
71764;BME280;59602;52.142;5.408;2023-03-13T01:04:58;100143.47;;;8.61;100.00
71764;BME280;59602;52.142;5.408;2023-03-13T01:07:28;100142.31;;;8.62;100.00
71764;BME280;59602;52.142;5.408;2023-03-13T01:09:55;100126.06;;;8.62;100.00
71764;BME280;59602;52.142;5.408;2023-03-13T01:12:23;100124.13;;;8.63;100.00
71764;BME280;59602;52.142;5.408;2023-03-13T01:14:49;100122.94;;;8.64;100.00
71764;BME280;59602;52.142;5.408;2023-03-13T01:17:20;100125.66;;;8.64;100.00
71764;BME280;59602;52.142;5.408;2023-03-13T01:19:50;100116.75;;;8.63;100.00
71764;BME280;59602;52.142;5.408;2023-03-13T01:22:17;100104.38;;;8.62;100.00
71764;BME280;59602;52.142;5.408;2023-03-13T01:24:45;100095.84;;;8.64;100.00
71764;BME280;59602;52.142;5.408;2023-03-13T01:27:15;100085.81;;;8.64;100.00
71764;BME280;59602;52.142;5.408;2023-03-13T01:29:42;100085.81;;;8.64;100.00
71764;BME280;59602;52.142;5.408;2023-03-13T01:32:09;100067.22;;;8.66;100.00
71764;BME280;59602;52.142;5.408;2023-03-13T01:34:36;100071.84;;;8.66;100.00
71764;BME280;59602;52.142;5.408;2023-03-13T01:37:02;100064.88;;;8.68;100.00
71764;BME280;59602;52.142;5.408;2023-03-13T01:39:39;100048.25;;;8.70;100.00
71764;BME280;59602;52.142;5.408;2023-03-13T01:42:09;100044.38;;;8.71;100.00
71764;BME280;59602;52.142;5.408;2023-03-13T01:44:51;100026.94;;;8.72;100.00
71764;BME280;59602;52.142;5.408;2023-03-13T01:47:19;100037.00;;;8.75;100.00
71764;BME280;59602;52.142;5.408;2023-03-13T01:49:46;100025.03;;;8.76;100.00
71764;BME280;59602;52.142;5.408;2023-03-13T01:52:19;100021.13;;;8.77;100.00
71764;BME280;59602;52.142;5.408;2023-03-13T01:54:51;100009.91;;;8.79;100.00
71764;BME280;59602;52.142;5.408;2023-03-13T01:57:26;100006.81;;;8.80;100.00
71764;BME280;59602;52.142;5.408;2023-03-13T02:00:07;100002.19;;;8.84;100.00
71764;BME280;59602;52.142;5.408;2023-03-13T02:02:40;100002.19;;;8.84;100.00
71764;BME280;59602;52.142;5.408;2023-03-13T02:05:08;99983.56;;;8.90;100.00
71764;BME280;59602;52.142;5.408;2023-03-13T02:07:39;99983.97;;;8.92;100.00
71764;BME280;59602;52.142;5.408;2023-03-13T02:10:08;99978.53;;;8.92;100.00
71764;BME280;59602;52.142;5.408;2023-03-13T02:12:38;99955.72;;;8.93;100.00
71764;BME280;59602;52.142;5.408;2023-03-13T02:15:12;99950.25;;;8.97;100.00
71764;BME280;59602;52.142;5.408;2023-03-13T02:17:41;99938.28;;;8.98;100.00
71764;BME280;59602;52.142;5.408;2023-03-13T02:20:09;99932.06;;;9.01;100.00
71764;BME280;59602;52.142;5.408;2023-03-13T02:22:48;99934.38;;;9.02;100.00
71764;BME280;59602;52.142;5.408;2023-03-13T02:25:27;99919.66;;;9.03;100.00
71764;BME280;59602;52.142;5.408;2023-03-13T02:27:58;99911.53;;;9.03;100.00
71764;BME280;59602;52.142;5.408;2023-03-13T02:30:26;99904.53;;;9.06;100.00
71764;BME280;59602;52.142;5.408;2023-03-13T02:32:53;99911.91;;;9.09;100.00
71764;BME280;59602;52.142;5.408;2023-03-13T02:35:22;99901.03;;;9.12;100.00
71764;BME280;59602;52.142;5.408;2023-03-13T02:37:53;99894.84;;;9.16;100.00
71764;BME280;59602;52.142;5.408;2023-03-13T02:40:24;99901.41;;;9.18;100.00
71764;BME280;59602;52.142;5.408;2023-03-13T02:42:53;99899.84;;;9.21;100.00
71764;BME280;59602;52.142;5.408;2023-03-13T02:45:21;99888.22;;;9.20;100.00
71764;BME280;59602;52.142;5.408;2023-03-13T02:47:48;99887.81;;;9.22;100.00
71764;BME280;59602;52.142;5.408;2023-03-13T02:50:16;99883.56;;;9.24;100.00
71764;BME280;59602;52.142;5.408;2023-03-13T02:52:45;99886.25;;;9.28;100.00
71764;BME280;59602;52.142;5.408;2023-03-13T02:55:22;99878.09;;;9.35;100.00
71764;BME280;59602;52.142;5.408;2023-03-13T02:57:50;99883.13;;;9.37;100.00
71764;BME280;59602;52.142;5.408;2023-03-13T03:00:17;99868.78;;;9.36;100.00
71764;BME280;59602;52.142;5.408;2023-03-13T03:02:45;99883.88;;;9.41;100.00
71764;BME280;59602;52.142;5.408;2023-03-13T03:05:12;99888.13;;;9.45;100.00
71764;BME280;59602;52.142;5.408;2023-03-13T03:07:40;99881.13;;;9.51;100.00
71764;BME280;59602;52.142;5.408;2023-03-13T03:10:08;99873.75;;;9.55;100.00
71764;BME280;59602;52.142;5.408;2023-03-13T03:12:35;99877.59;;;9.58;100.00
71764;BME280;59602;52.142;5.408;2023-03-13T03:15:02;99881.84;;;9.63;100.00
71764;BME280;59602;52.142;5.408;2023-03-13T03:17:31;99876.38;;;9.66;100.00
71764;BME280;59602;52.142;5.408;2023-03-13T03:19:59;99870.94;;;9.70;100.00
71764;BME280;59602;52.142;5.408;2023-03-13T03:22:27;99878.28;;;9.73;100.00
71764;BME280;59602;52.142;5.408;2023-03-13T03:24:54;99882.50;;;9.77;100.00
71764;BME280;59602;52.142;5.408;2023-03-13T03:27:26;99858.44;;;9.87;100.00
71764;BME280;59602;52.142;5.408;2023-03-13T03:29:54;99866.16;;;9.88;100.00
71764;BME280;59602;52.142;5.408;2023-03-13T03:32:21;99859.16;;;9.91;100.00
71764;BME280;59602;52.142;5.408;2023-03-13T03:34:48;99861.47;;;9.96;100.00
71764;BME280;59602;52.142;5.408;2023-03-13T03:37:25;99850.97;;;9.98;100.00
71764;BME280;59602;52.142;5.408;2023-03-13T03:39:52;99838.91;;;10.03;100.00
71764;BME280;59602;52.142;5.408;2023-03-13T03:42:24;99854.41;;;10.06;100.00
71764;BME280;59602;52.142;5.408;2023-03-13T03:44:50;99849.72;;;10.06;100.00
71764;BME280;59602;52.142;5.408;2023-03-13T03:47:18;99856.69;;;10.11;100.00
71764;BME280;59602;52.142;5.408;2023-03-13T03:49:48;99851.59;;;10.16;100.00
71764;BME280;59602;52.142;5.408;2023-03-13T03:52:22;99853.13;;;10.21;100.00
71764;BME280;59602;52.142;5.408;2023-03-13T03:54:50;99853.06;;;10.25;100.00
71764;BME280;59602;52.142;5.408;2023-03-13T03:57:17;99850.78;;;10.23;100.00
71764;BME280;59602;52.142;5.408;2023-03-13T03:59:44;99845.69;;;10.29;100.00
71764;BME280;59602;52.142;5.408;2023-03-13T04:02:14;99838.69;;;10.28;100.00
71764;BME280;59602;52.142;5.408;2023-03-13T04:04:41;99832.91;;;10.29;100.00
71764;BME280;59602;52.142;5.408;2023-03-13T04:07:08;99831.69;;;10.34;100.00
71764;BME280;59602;52.142;5.408;2023-03-13T04:09:36;99837.53;;;10.32;100.00
71764;BME280;59602;52.142;5.408;2023-03-13T04:12:03;99832.84;;;10.36;100.00
71764;BME280;59602;52.142;5.408;2023-03-13T04:14:31;99826.56;;;10.39;100.00
71764;BME280;59602;52.142;5.408;2023-03-13T04:17:01;99833.09;;;10.49;100.00
71764;BME280;59602;52.142;5.408;2023-03-13T04:19:37;99823.00;;;10.50;100.00
71764;BME280;59602;52.142;5.408;2023-03-13T04:22:06;99820.31;;;10.46;100.00
71764;BME280;59602;52.142;5.408;2023-03-13T04:24:33;99804.00;;;10.46;100.00
71764;BME280;59602;52.142;5.408;2023-03-13T04:27:01;99807.09;;;10.48;100.00
71764;BME280;59602;52.142;5.408;2023-03-13T04:29:29;99808.22;;;10.51;100.00
71764;BME280;59602;52.142;5.408;2023-03-13T04:32:05;99788.81;;;10.52;100.00
71764;BME280;59602;52.142;5.408;2023-03-13T04:34:34;99796.56;;;10.54;100.00
71764;BME280;59602;52.142;5.408;2023-03-13T04:37:01;99780.97;;;10.58;100.00
71764;BME280;59602;52.142;5.408;2023-03-13T04:39:51;99769.28;;;10.61;100.00
71764;BME280;59602;52.142;5.408;2023-03-13T04:42:20;99772.38;;;10.63;100.00
71764;BME280;59602;52.142;5.408;2023-03-13T04:44:47;99776.22;;;10.66;100.00
71764;BME280;59602;52.142;5.408;2023-03-13T04:47:14;99758.72;;;10.67;100.00
71764;BME280;59602;52.142;5.408;2023-03-13T04:49:42;99766.88;;;10.67;100.00
71764;BME280;59602;52.142;5.408;2023-03-13T04:52:33;99775.03;;;10.67;100.00
71764;BME280;59602;52.142;5.408;2023-03-13T04:55:08;99781.59;;;10.69;100.00
71764;BME280;59602;52.142;5.408;2023-03-13T04:57:37;99777.34;;;10.72;100.00
71764;BME280;59602;52.142;5.408;2023-03-13T05:00:11;99769.53;;;10.74;100.00
71764;BME280;59602;52.142;5.408;2023-03-13T05:02:51;99761.69;;;10.79;100.00
71764;BME280;59602;52.142;5.408;2023-03-13T05:05:20;99753.06;;;10.85;100.00
71764;BME280;59602;52.142;5.408;2023-03-13T05:08:04;99768.59;;;10.88;100.00
71764;BME280;59602;52.142;5.408;2023-03-13T05:11:00;99761.56;;;10.90;100.00
71764;BME280;59602;52.142;5.408;2023-03-13T05:13:30;99764.66;;;10.92;100.00
71764;BME280;59602;52.142;5.408;2023-03-13T05:16:01;99762.69;;;10.93;100.00
71764;BME280;59602;52.142;5.408;2023-03-13T05:18:29;99763.41;;;10.97;100.00
71764;BME280;59602;52.142;5.408;2023-03-13T05:21:14;99757.16;;;11.00;100.00
71764;BME280;59602;52.142;5.408;2023-03-13T05:24:29;99745.91;;;10.98;100.00
71764;BME280;59602;52.142;5.408;2023-03-13T05:27:37;99758.28;;;11.02;100.00
71764;BME280;59602;52.142;5.408;2023-03-13T05:30:20;99755.16;;;11.04;100.00
71764;BME280;59602;52.142;5.408;2023-03-13T05:32:52;99755.56;;;11.02;100.00
71764;BME280;59602;52.142;5.408;2023-03-13T05:36:22;99759.78;;;11.07;100.00
71764;BME280;59602;52.142;5.408;2023-03-13T05:38:51;99748.03;;;11.14;100.00
71764;BME280;59602;52.142;5.408;2023-03-13T05:41:19;99739.88;;;11.14;100.00
71764;BME280;59602;52.142;5.408;2023-03-13T05:43:46;99741.03;;;11.16;100.00
71764;BME280;59602;52.142;5.408;2023-03-13T05:49:13;99748.34;;;11.19;100.00
71764;BME280;59602;52.142;5.408;2023-03-13T05:51:54;99744.50;;;11.17;100.00
71764;BME280;59602;52.142;5.408;2023-03-13T05:54:44;99725.72;;;11.26;100.00
71764;BME280;59602;52.142;5.408;2023-03-13T05:57:48;99726.88;;;11.25;100.00
71764;BME280;59602;52.142;5.408;2023-03-13T06:00:51;99724.13;;;11.29;100.00
71764;BME280;59602;52.142;5.408;2023-03-13T06:03:39;99729.16;;;11.30;100.00
71764;BME280;59602;52.142;5.408;2023-03-13T06:06:30;99712.81;;;11.30;100.00
71764;BME280;59602;52.142;5.408;2023-03-13T06:08:59;99727.19;;;11.31;100.00
71764;BME280;59602;52.142;5.408;2023-03-13T06:11:40;99714.78;;;11.30;100.00
71764;BME280;59602;52.142;5.408;2023-03-13T06:14:23;99717.91;;;11.28;100.00
71764;BME280;59602;52.142;5.408;2023-03-13T06:16:54;99712.50;;;11.25;100.00
71764;BME280;59602;52.142;5.408;2023-03-13T06:19:21;99707.81;;;11.25;100.00
71764;BME280;59602;52.142;5.408;2023-03-13T06:21:58;99712.47;;;11.28;100.00
71764;BME280;59602;52.142;5.408;2023-03-13T06:24:29;99708.91;;;11.31;100.00
71764;BME280;59602;52.142;5.408;2023-03-13T06:27:18;99709.69;;;11.32;100.00
71764;BME280;59602;52.142;5.408;2023-03-13T06:32:43;99706.94;;;11.32;100.00
71764;BME280;59602;52.142;5.408;2023-03-13T06:35:10;99718.63;;;11.32;100.00
71764;BME280;59602;52.142;5.408;2023-03-13T06:37:38;99715.47;;;11.34;100.00
71764;BME280;59602;52.142;5.408;2023-03-13T06:40:12;99709.59;;;11.39;100.00
71764;BME280;59602;52.142;5.408;2023-03-13T06:42:51;99708.72;;;11.46;99.61
71764;BME280;59602;52.142;5.408;2023-03-13T06:45:20;99699.34;;;11.47;98.93
71764;BME280;59602;52.142;5.408;2023-03-13T06:48:03;99708.22;;;11.51;99.07
71764;BME280;59602;52.142;5.408;2023-03-13T06:50:30;99716.41;;;11.51;98.69
71764;BME280;59602;52.142;5.408;2023-03-13T06:53:02;99712.06;;;11.53;98.28
71764;BME280;59602;52.142;5.408;2023-03-13T06:55:32;99705.88;;;11.53;98.46
71764;BME280;59602;52.142;5.408;2023-03-13T06:58:11;99711.66;;;11.55;98.10
71764;BME280;59602;52.142;5.408;2023-03-13T07:00:57;99710.44;;;11.59;98.25
71764;BME280;59602;52.142;5.408;2023-03-13T07:03:25;99722.03;;;11.63;97.93
71764;BME280;59602;52.142;5.408;2023-03-13T07:06:16;99707.19;;;11.68;97.34
71764;BME280;59602;52.142;5.408;2023-03-13T07:08:49;99713.38;;;11.69;97.01
71764;BME280;59602;52.142;5.408;2023-03-13T07:11:30;99725.47;;;11.68;97.40
71764;BME280;59602;52.142;5.408;2023-03-13T07:13:59;99718.06;;;11.68;97.24
71764;BME280;59602;52.142;5.408;2023-03-13T07:19:43;99724.31;;;11.65;97.87
71764;BME280;59602;52.142;5.408;2023-03-13T07:22:12;99729.41;;;11.63;98.01
71764;BME280;59602;52.142;5.408;2023-03-13T07:24:48;99738.78;;;11.62;98.42
71764;BME280;59602;52.142;5.408;2023-03-13T07:27:39;99726.00;;;11.59;98.62
71764;BME280;59602;52.142;5.408;2023-03-13T07:30:44;99731.84;;;11.57;99.05
71764;BME280;59602;52.142;5.408;2023-03-13T07:33:41;99735.34;;;11.58;99.42
71764;BME280;59602;52.142;5.408;2023-03-13T07:36:21;99726.03;;;11.55;99.73
71764;BME280;59602;52.142;5.408;2023-03-13T07:38:51;99736.16;;;11.55;99.58
71764;BME280;59602;52.142;5.408;2023-03-13T07:41:19;99732.69;;;11.54;100.00
71764;BME280;59602;52.142;5.408;2023-03-13T07:43:53;99726.09;;;11.52;100.00
71764;BME280;59602;52.142;5.408;2023-03-13T07:46:22;99747.16;;;11.48;100.00
71764;BME280;59602;52.142;5.408;2023-03-13T07:49:04;99750.69;;;11.45;100.00
71764;BME280;59602;52.142;5.408;2023-03-13T07:51:30;99748.38;;;11.43;100.00
71764;BME280;59602;52.142;5.408;2023-03-13T07:54:09;99755.44;;;11.40;100.00
71764;BME280;59602;52.142;5.408;2023-03-13T07:56:37;99759.34;;;11.39;100.00
71764;BME280;59602;52.142;5.408;2023-03-13T07:59:04;99758.16;;;11.40;100.00
71764;BME280;59602;52.142;5.408;2023-03-13T08:01:32;99753.81;;;11.43;100.00
71764;BME280;59602;52.142;5.408;2023-03-13T08:03:59;99756.53;;;11.43;100.00
71764;BME280;59602;52.142;5.408;2023-03-13T08:06:30;99761.22;;;11.42;100.00
71764;BME280;59602;52.142;5.408;2023-03-13T08:09:00;99769.41;;;11.42;100.00
71764;BME280;59602;52.142;5.408;2023-03-13T08:11:27;99753.81;;;11.43;100.00
71764;BME280;59602;52.142;5.408;2023-03-13T08:13:55;99744.44;;;11.48;100.00
71764;BME280;59602;52.142;5.408;2023-03-13T08:16:27;99759.91;;;11.54;100.00
71764;BME280;59602;52.142;5.408;2023-03-13T08:18:56;99738.47;;;11.56;100.00
71764;BME280;59602;52.142;5.408;2023-03-13T08:21:27;99737.69;;;11.56;100.00
71764;BME280;59602;52.142;5.408;2023-03-13T08:23:56;99741.66;;;11.51;100.00
71764;BME280;59602;52.142;5.408;2023-03-13T08:26:27;99731.16;;;11.50;100.00
71764;BME280;59602;52.142;5.408;2023-03-13T08:28:57;99730.84;;;11.48;100.00
71764;BME280;59602;52.142;5.408;2023-03-13T08:31:27;99731.25;;;11.46;100.00
71764;BME280;59602;52.142;5.408;2023-03-13T08:33:55;99721.13;;;11.47;100.00
71764;BME280;59602;52.142;5.408;2023-03-13T08:36:24;99703.19;;;11.49;100.00
71764;BME280;59602;52.142;5.408;2023-03-13T08:38:57;99709.41;;;11.50;100.00
71764;BME280;59602;52.142;5.408;2023-03-13T08:41:27;99706.69;;;11.50;100.00
71764;BME280;59602;52.142;5.408;2023-03-13T08:43:55;99704.31;;;11.52;100.00
71764;BME280;59602;52.142;5.408;2023-03-13T08:46:28;99702.31;;;11.56;100.00
71764;BME280;59602;52.142;5.408;2023-03-13T08:48:56;99712.38;;;11.59;100.00
71764;BME280;59602;52.142;5.408;2023-03-13T08:51:25;99693.25;;;11.62;100.00
71764;BME280;59602;52.142;5.408;2023-03-13T08:53:52;99690.88;;;11.64;100.00
71764;BME280;59602;52.142;5.408;2023-03-13T08:56:24;99678.81;;;11.66;100.00
71764;BME280;59602;52.142;5.408;2023-03-13T08:58:54;99686.56;;;11.67;100.00
71764;BME280;59602;52.142;5.408;2023-03-13T09:01:23;99677.22;;;11.68;100.00
71764;BME280;59602;52.142;5.408;2023-03-13T09:03:50;99684.56;;;11.71;100.00
71764;BME280;59602;52.142;5.408;2023-03-13T09:06:18;99689.22;;;11.71;100.00
71764;BME280;59602;52.142;5.408;2023-03-13T09:08:45;99690.34;;;11.73;100.00
71764;BME280;59602;52.142;5.408;2023-03-13T09:11:14;99707.44;;;11.74;100.00
71764;BME280;59602;52.142;5.408;2023-03-13T09:13:43;99699.22;;;11.77;100.00
71764;BME280;59602;52.142;5.408;2023-03-13T09:16:13;99685.03;;;11.90;100.00
71764;BME280;59602;52.142;5.408;2023-03-13T09:18:41;99690.78;;;11.95;100.00
71764;BME280;59602;52.142;5.408;2023-03-13T09:21:11;99667.19;;;12.09;99.97
71764;BME280;59602;52.142;5.408;2023-03-13T09:23:38;99659.84;;;12.25;98.85
71764;BME280;59602;52.142;5.408;2023-03-13T09:26:05;99656.13;;;12.36;97.64
71764;BME280;59602;52.142;5.408;2023-03-13T09:28:36;99664.09;;;12.46;97.12
71764;BME280;59602;52.142;5.408;2023-03-13T09:31:09;99654.66;;;12.51;96.23
71764;BME280;59602;52.142;5.408;2023-03-13T09:33:37;99648.53;;;12.63;96.16
71764;BME280;59602;52.142;5.408;2023-03-13T09:36:04;99648.31;;;12.74;95.39
71764;BME280;59602;52.142;5.408;2023-03-13T09:38:31;99648.06;;;12.85;95.07
71764;BME280;59602;52.142;5.408;2023-03-13T09:41:13;99651.16;;;12.87;94.50
71764;BME280;59602;52.142;5.408;2023-03-13T09:43:57;99662.06;;;12.87;93.58
71764;BME280;59602;52.142;5.408;2023-03-13T09:49:14;99633.09;;;12.93;92.31
71764;BME280;59602;52.142;5.408;2023-03-13T09:51:46;99641.34;;;12.90;92.61
71764;BME280;59602;52.142;5.408;2023-03-13T09:54:25;99614.47;;;12.88;92.07
71764;BME280;59602;52.142;5.408;2023-03-13T09:56:58;99614.00;;;12.93;92.11
71764;BME280;59602;52.142;5.408;2023-03-13T09:59:32;99611.09;;;13.00;92.17
71764;BME280;59602;52.142;5.408;2023-03-13T10:04:44;99603.00;;;13.13;91.08
71764;BME280;59602;52.142;5.408;2023-03-13T10:07:13;99608.34;;;13.17;90.45
71764;BME280;59602;52.142;5.408;2023-03-13T10:09:39;99601.13;;;13.26;90.41
71764;BME280;59602;52.142;5.408;2023-03-13T10:12:17;99604.03;;;13.36;89.51
71764;BME280;59602;52.142;5.408;2023-03-13T10:15:06;99596.13;;;13.54;89.09
71764;BME280;59602;52.142;5.408;2023-03-13T10:17:42;99582.53;;;13.67;86.59
71764;BME280;59602;52.142;5.408;2023-03-13T10:20:23;99594.28;;;13.80;86.83
71764;BME280;59602;52.142;5.408;2023-03-13T10:25:51;99598.69;;;13.90;84.58
71764;BME280;59602;52.142;5.408;2023-03-13T10:32:08;99579.53;;;13.90;83.59
71764;BME280;59602;52.142;5.408;2023-03-13T10:37:18;99580.75;;;13.89;83.84
71764;BME280;59602;52.142;5.408;2023-03-13T10:39:45;99595.28;;;13.86;82.31
71764;BME280;59602;52.142;5.408;2023-03-13T10:42:24;99596.06;;;13.87;81.19
71764;BME280;59602;52.142;5.408;2023-03-13T10:44:57;99577.69;;;13.87;82.16
71764;BME280;59602;52.142;5.408;2023-03-13T10:47:24;99587.53;;;13.85;82.20
71764;BME280;59602;52.142;5.408;2023-03-13T10:49:55;99591.44;;;13.84;82.37
71764;BME280;59602;52.142;5.408;2023-03-13T10:52:41;99600.31;;;13.88;81.12
71764;BME280;59602;52.142;5.408;2023-03-13T10:55:12;99589.97;;;13.96;79.11
71764;BME280;59602;52.142;5.408;2023-03-13T10:57:57;99588.75;;;13.97;79.43
71764;BME280;59602;52.142;5.408;2023-03-13T11:00:33;99568.94;;;13.93;81.04
71764;BME280;59602;52.142;5.408;2023-03-13T11:03:01;99575.38;;;13.86;80.29
71764;BME280;59602;52.142;5.408;2023-03-13T11:05:40;99577.00;;;13.83;80.40
71764;BME280;59602;52.142;5.408;2023-03-13T11:08:12;99559.44;;;13.97;80.06
71764;BME280;59602;52.142;5.408;2023-03-13T11:10:51;99564.06;;;14.13;79.60
71764;BME280;59602;52.142;5.408;2023-03-13T11:13:34;99572.09;;;14.20;79.24
71764;BME280;59602;52.142;5.408;2023-03-13T11:16:17;99547.47;;;14.33;79.12
71764;BME280;59602;52.142;5.408;2023-03-13T11:24:34;99540.41;;;14.61;74.09
71764;BME280;59602;52.142;5.408;2023-03-13T11:27:35;99530.13;;;14.65;74.29
71764;BME280;59602;52.142;5.408;2023-03-13T11:30:14;99549.59;;;14.80;72.51
71764;BME280;59602;52.142;5.408;2023-03-13T11:35:38;99520.19;;;14.93;72.09
71764;BME280;59602;52.142;5.408;2023-03-13T11:38:12;99527.94;;;15.08;70.63
71764;BME280;59602;52.142;5.408;2023-03-13T11:40:51;99527.13;;;15.20;70.46
71764;BME280;59602;52.142;5.408;2023-03-13T11:43:55;99512.09;;;15.25;70.66
71764;BME280;59602;52.142;5.408;2023-03-13T11:46:39;99525.00;;;15.37;70.61
71764;BME280;59602;52.142;5.408;2023-03-13T11:49:17;99516.72;;;15.50;70.89
71764;BME280;59602;52.142;5.408;2023-03-13T11:52:00;99495.00;;;15.55;70.23
71764;BME280;59602;52.142;5.408;2023-03-13T11:57:07;99502.25;;;15.49;69.72
71764;BME280;59602;52.142;5.408;2023-03-13T11:59:40;99489.13;;;15.44;69.46
71764;BME280;59602;52.142;5.408;2023-03-13T12:05:08;99485.25;;;15.32;70.51
71764;BME280;59602;52.142;5.408;2023-03-13T12:07:44;99518.13;;;15.32;69.90
71764;BME280;59602;52.142;5.408;2023-03-13T12:10:14;99499.59;;;15.36;69.73
71764;BME280;59602;52.142;5.408;2023-03-13T12:12:48;99514.03;;;15.37;69.51
71764;BME280;59602;52.142;5.408;2023-03-13T12:15:21;99493.28;;;15.49;69.45
71764;BME280;59602;52.142;5.408;2023-03-13T12:17:55;99498.97;;;15.54;70.71
71764;BME280;59602;52.142;5.408;2023-03-13T12:20:31;99492.56;;;15.57;69.13
71764;BME280;59602;52.142;5.408;2023-03-13T12:25:37;99495.66;;;15.82;67.96
71764;BME280;59602;52.142;5.408;2023-03-13T12:28:22;99489.78;;;15.92;65.05
71764;BME280;59602;52.142;5.408;2023-03-13T12:30:58;99488.06;;;15.86;64.68
71764;BME280;59602;52.142;5.408;2023-03-13T12:34:12;99494.94;;;15.68;63.45
71764;BME280;59602;52.142;5.408;2023-03-13T12:36:29;99479.06;;;15.63;61.09
71764;BME280;59602;52.142;5.408;2023-03-13T12:41:39;99482.97;;;15.75;62.22
71764;BME280;59602;52.142;5.408;2023-03-13T12:44:14;99491.38;;;15.81;60.30
71764;BME280;59602;52.142;5.408;2023-03-13T12:46:46;99501.00;;;15.85;61.37
71764;BME280;59602;52.142;5.408;2023-03-13T12:52:15;99467.44;;;16.03;62.17
71764;BME280;59602;52.142;5.408;2023-03-13T13:00:46;99465.25;;;15.98;62.03
71764;BME280;59602;52.142;5.408;2023-03-13T13:03:34;99468.59;;;15.93;62.46
71764;BME280;59602;52.142;5.408;2023-03-13T13:06:06;99481.53;;;15.92;62.99
71764;BME280;59602;52.142;5.408;2023-03-13T13:08:38;99436.75;;;15.86;61.97
71764;BME280;59602;52.142;5.408;2023-03-13T13:16:45;99437.97;;;15.63;63.07
71764;BME280;59602;52.142;5.408;2023-03-13T13:24:59;99432.38;;;15.45;64.25
71764;BME280;59602;52.142;5.408;2023-03-13T13:29:59;99422.94;;;15.46;65.39
71764;BME280;59602;52.142;5.408;2023-03-13T13:32:33;99427.53;;;15.49;65.29
71764;BME280;59602;52.142;5.408;2023-03-13T13:35:03;99425.75;;;15.55;65.10
71764;BME280;59602;52.142;5.408;2023-03-13T13:37:32;99430.31;;;15.58;64.61
71764;BME280;59602;52.142;5.408;2023-03-13T13:40:22;99425.94;;;15.61;64.74
71764;BME280;59602;52.142;5.408;2023-03-13T13:42:54;99410.25;;;15.61;63.62
71764;BME280;59602;52.142;5.408;2023-03-13T13:45:25;99414.97;;;15.61;64.06
71764;BME280;59602;52.142;5.408;2023-03-13T13:48:13;99425.94;;;15.61;62.27
71764;BME280;59602;52.142;5.408;2023-03-13T13:53:33;99419.81;;;15.56;60.53
71764;BME280;59602;52.142;5.408;2023-03-13T14:01:48;99429.72;;;15.54;59.59
71764;BME280;59602;52.142;5.408;2023-03-13T14:04:27;99405.28;;;15.47;59.04
71764;BME280;59602;52.142;5.408;2023-03-13T14:06:56;99422.31;;;15.42;59.86
71764;BME280;59602;52.142;5.408;2023-03-13T14:09:36;99429.25;;;15.33;60.13
71764;BME280;59602;52.142;5.408;2023-03-13T14:12:26;99433.00;;;15.27;60.03
71764;BME280;59602;52.142;5.408;2023-03-13T14:15:15;99413.72;;;15.30;59.62
71764;BME280;59602;52.142;5.408;2023-03-13T14:17:45;99435.91;;;15.23;59.51
71764;BME280;59602;52.142;5.408;2023-03-13T14:20:27;99418.94;;;15.15;59.69
71764;BME280;59602;52.142;5.408;2023-03-13T14:22:57;99415.78;;;15.17;60.69
71764;BME280;59602;52.142;5.408;2023-03-13T14:25:42;99414.44;;;15.22;59.86
71764;BME280;59602;52.142;5.408;2023-03-13T14:28:22;99408.19;;;15.21;60.96
71764;BME280;59602;52.142;5.408;2023-03-13T14:30:57;99395.69;;;15.20;60.48
71764;BME280;59602;52.142;5.408;2023-03-13T14:33:28;99392.97;;;15.20;60.72
71764;BME280;59602;52.142;5.408;2023-03-13T14:35:56;99401.31;;;15.17;60.21
71764;BME280;59602;52.142;5.408;2023-03-13T14:38:26;99380.75;;;15.12;60.56
71764;BME280;59602;52.142;5.408;2023-03-13T14:40:55;99376.03;;;15.12;61.30